sensor_id;sensor_type;location;lat;lon;timestamp;P1;durP1;ratioP1;P2;durP2;ratioP2
4521;SDS011;2273;48.464;11.926;2022-07-23T00:02:21;14.90;;;8.90;;
4521;SDS011;2273;48.464;11.926;2022-07-23T00:04:46;11.83;;;9.90;;
4521;SDS011;2273;48.464;11.926;2022-07-23T00:07:12;10.87;;;9.63;;
4521;SDS011;2273;48.464;11.926;2022-07-23T00:09:37;11.30;;;8.83;;
4521;SDS011;2273;48.464;11.926;2022-07-23T00:12:03;12.53;;;9.70;;
4521;SDS011;2273;48.464;11.926;2022-07-23T00:14:29;10.17;;;9.00;;
4521;SDS011;2273;48.464;11.926;2022-07-23T00:16:54;10.70;;;9.10;;
4521;SDS011;2273;48.464;11.926;2022-07-23T00:19:20;10.43;;;8.77;;
4521;SDS011;2273;48.464;11.926;2022-07-23T00:21:45;14.63;;;9.43;;
4521;SDS011;2273;48.464;11.926;2022-07-23T00:24:11;10.10;;;9.10;;
4521;SDS011;2273;48.464;11.926;2022-07-23T00:26:36;9.63;;;8.60;;
4521;SDS011;2273;48.464;11.926;2022-07-23T00:29:01;11.40;;;9.47;;
4521;SDS011;2273;48.464;11.926;2022-07-23T00:31:27;12.20;;;8.93;;
4521;SDS011;2273;48.464;11.926;2022-07-23T00:33:53;10.47;;;8.60;;
4521;SDS011;2273;48.464;11.926;2022-07-23T00:36:22;9.80;;;8.23;;
4521;SDS011;2273;48.464;11.926;2022-07-23T00:38:50;11.87;;;9.43;;
4521;SDS011;2273;48.464;11.926;2022-07-23T00:41:15;9.90;;;8.37;;
4521;SDS011;2273;48.464;11.926;2022-07-23T00:43:41;11.57;;;8.23;;
4521;SDS011;2273;48.464;11.926;2022-07-23T00:46:06;9.90;;;8.10;;
4521;SDS011;2273;48.464;11.926;2022-07-23T00:48:32;11.43;;;7.90;;
4521;SDS011;2273;48.464;11.926;2022-07-23T00:50:57;11.50;;;9.10;;
4521;SDS011;2273;48.464;11.926;2022-07-23T00:53:24;9.00;;;7.90;;
4521;SDS011;2273;48.464;11.926;2022-07-23T00:55:49;10.93;;;8.50;;
4521;SDS011;2273;48.464;11.926;2022-07-23T00:58:15;10.17;;;8.23;;
4521;SDS011;2273;48.464;11.926;2022-07-23T01:00:41;12.63;;;8.40;;
4521;SDS011;2273;48.464;11.926;2022-07-23T01:03:07;13.47;;;8.60;;
4521;SDS011;2273;48.464;11.926;2022-07-23T01:05:32;12.47;;;8.30;;
4521;SDS011;2273;48.464;11.926;2022-07-23T01:07:58;11.13;;;8.70;;
4521;SDS011;2273;48.464;11.926;2022-07-23T01:10:24;11.03;;;8.80;;
4521;SDS011;2273;48.464;11.926;2022-07-23T01:12:56;11.70;;;8.00;;
4521;SDS011;2273;48.464;11.926;2022-07-23T01:15:35;8.90;;;7.63;;
4521;SDS011;2273;48.464;11.926;2022-07-23T01:18:02;16.27;;;7.50;;
4521;SDS011;2273;48.464;11.926;2022-07-23T01:20:29;9.10;;;8.10;;
4521;SDS011;2273;48.464;11.926;2022-07-23T01:22:56;8.90;;;8.00;;
4521;SDS011;2273;48.464;11.926;2022-07-23T01:25:22;10.40;;;7.83;;
4521;SDS011;2273;48.464;11.926;2022-07-23T01:27:59;12.40;;;8.50;;
4521;SDS011;2273;48.464;11.926;2022-07-23T01:30:26;12.13;;;7.63;;
4521;SDS011;2273;48.464;11.926;2022-07-23T01:32:52;13.53;;;8.80;;
4521;SDS011;2273;48.464;11.926;2022-07-23T01:35:18;10.73;;;9.27;;
4521;SDS011;2273;48.464;11.926;2022-07-23T01:37:45;10.27;;;9.10;;
4521;SDS011;2273;48.464;11.926;2022-07-23T01:40:12;10.43;;;9.23;;
4521;SDS011;2273;48.464;11.926;2022-07-23T01:42:37;10.63;;;9.03;;
4521;SDS011;2273;48.464;11.926;2022-07-23T01:45:04;11.10;;;9.80;;
4521;SDS011;2273;48.464;11.926;2022-07-23T01:47:31;14.83;;;9.70;;
4521;SDS011;2273;48.464;11.926;2022-07-23T01:49:57;23.50;;;9.80;;
4521;SDS011;2273;48.464;11.926;2022-07-23T01:52:43;17.33;;;9.80;;
4521;SDS011;2273;48.464;11.926;2022-07-23T01:55:09;15.13;;;9.67;;
4521;SDS011;2273;48.464;11.926;2022-07-23T01:57:36;15.07;;;9.60;;
4521;SDS011;2273;48.464;11.926;2022-07-23T02:00:03;19.80;;;9.00;;
4521;SDS011;2273;48.464;11.926;2022-07-23T02:02:38;17.70;;;9.47;;
4521;SDS011;2273;48.464;11.926;2022-07-23T02:05:04;9.90;;;8.33;;
4521;SDS011;2273;48.464;11.926;2022-07-23T02:07:29;13.00;;;7.50;;
4521;SDS011;2273;48.464;11.926;2022-07-23T02:09:57;15.90;;;7.30;;
4521;SDS011;2273;48.464;11.926;2022-07-23T02:12:23;18.63;;;6.80;;
4521;SDS011;2273;48.464;11.926;2022-07-23T02:14:48;11.03;;;6.30;;
4521;SDS011;2273;48.464;11.926;2022-07-23T02:17:14;14.37;;;5.70;;
4521;SDS011;2273;48.464;11.926;2022-07-23T02:19:39;11.00;;;5.90;;
4521;SDS011;2273;48.464;11.926;2022-07-23T02:22:04;12.60;;;6.10;;
4521;SDS011;2273;48.464;11.926;2022-07-23T02:24:30;9.83;;;5.87;;
4521;SDS011;2273;48.464;11.926;2022-07-23T02:26:55;16.63;;;5.40;;
4521;SDS011;2273;48.464;11.926;2022-07-23T02:29:21;15.83;;;6.87;;
4521;SDS011;2273;48.464;11.926;2022-07-23T02:31:46;16.23;;;6.90;;
4521;SDS011;2273;48.464;11.926;2022-07-23T02:34:12;15.00;;;6.97;;
4521;SDS011;2273;48.464;11.926;2022-07-23T02:36:38;16.60;;;7.60;;
4521;SDS011;2273;48.464;11.926;2022-07-23T02:39:04;15.00;;;7.20;;
4521;SDS011;2273;48.464;11.926;2022-07-23T02:41:32;12.67;;;7.27;;
4521;SDS011;2273;48.464;11.926;2022-07-23T02:43:57;9.27;;;7.10;;
4521;SDS011;2273;48.464;11.926;2022-07-23T02:46:23;16.30;;;7.40;;
4521;SDS011;2273;48.464;11.926;2022-07-23T02:48:49;16.03;;;7.43;;
4521;SDS011;2273;48.464;11.926;2022-07-23T02:51:14;11.30;;;6.43;;
4521;SDS011;2273;48.464;11.926;2022-07-23T02:53:42;12.27;;;6.10;;
4521;SDS011;2273;48.464;11.926;2022-07-23T02:56:08;12.90;;;6.23;;
4521;SDS011;2273;48.464;11.926;2022-07-23T02:58:34;11.23;;;6.00;;
4521;SDS011;2273;48.464;11.926;2022-07-23T03:01:01;12.60;;;6.17;;
4521;SDS011;2273;48.464;11.926;2022-07-23T03:03:26;10.13;;;5.60;;
4521;SDS011;2273;48.464;11.926;2022-07-23T03:05:52;7.93;;;5.40;;
4521;SDS011;2273;48.464;11.926;2022-07-23T03:08:17;10.13;;;6.10;;
4521;SDS011;2273;48.464;11.926;2022-07-23T03:10:48;14.67;;;7.00;;
4521;SDS011;2273;48.464;11.926;2022-07-23T03:13:13;7.77;;;5.70;;
4521;SDS011;2273;48.464;11.926;2022-07-23T03:15:39;10.20;;;5.90;;
4521;SDS011;2273;48.464;11.926;2022-07-23T03:18:04;11.73;;;5.87;;
4521;SDS011;2273;48.464;11.926;2022-07-23T03:20:30;9.60;;;5.53;;
4521;SDS011;2273;48.464;11.926;2022-07-23T03:22:55;11.40;;;6.20;;
4521;SDS011;2273;48.464;11.926;2022-07-23T03:25:21;9.03;;;5.70;;
4521;SDS011;2273;48.464;11.926;2022-07-23T03:27:46;7.30;;;5.20;;
4521;SDS011;2273;48.464;11.926;2022-07-23T03:30:12;8.33;;;6.43;;
4521;SDS011;2273;48.464;11.926;2022-07-23T03:32:38;11.43;;;6.00;;
4521;SDS011;2273;48.464;11.926;2022-07-23T03:35:04;8.87;;;5.63;;
4521;SDS011;2273;48.464;11.926;2022-07-23T03:37:31;8.50;;;6.00;;
4521;SDS011;2273;48.464;11.926;2022-07-23T03:39:57;7.00;;;5.27;;
4521;SDS011;2273;48.464;11.926;2022-07-23T03:42:23;12.53;;;6.00;;
4521;SDS011;2273;48.464;11.926;2022-07-23T03:44:49;9.13;;;6.37;;
4521;SDS011;2273;48.464;11.926;2022-07-23T03:47:14;9.60;;;5.63;;
4521;SDS011;2273;48.464;11.926;2022-07-23T03:49:42;13.33;;;5.70;;
4521;SDS011;2273;48.464;11.926;2022-07-23T03:52:08;13.43;;;6.00;;
4521;SDS011;2273;48.464;11.926;2022-07-23T03:54:34;7.93;;;5.40;;
4521;SDS011;2273;48.464;11.926;2022-07-23T03:57:00;11.50;;;5.33;;
4521;SDS011;2273;48.464;11.926;2022-07-23T03:59:27;7.30;;;5.40;;
4521;SDS011;2273;48.464;11.926;2022-07-23T04:01:53;9.50;;;5.80;;
4521;SDS011;2273;48.464;11.926;2022-07-23T04:04:18;8.90;;;5.93;;
4521;SDS011;2273;48.464;11.926;2022-07-23T04:06:44;8.87;;;5.40;;
4521;SDS011;2273;48.464;11.926;2022-07-23T04:09:09;8.63;;;5.90;;
4521;SDS011;2273;48.464;11.926;2022-07-23T04:11:35;8.70;;;6.20;;
4521;SDS011;2273;48.464;11.926;2022-07-23T04:14:01;11.20;;;7.40;;
4521;SDS011;2273;48.464;11.926;2022-07-23T04:16:26;12.60;;;6.90;;
4521;SDS011;2273;48.464;11.926;2022-07-23T04:18:53;9.87;;;6.53;;
4521;SDS011;2273;48.464;11.926;2022-07-23T04:21:20;9.87;;;6.40;;
4521;SDS011;2273;48.464;11.926;2022-07-23T04:23:47;8.20;;;6.30;;
4521;SDS011;2273;48.464;11.926;2022-07-23T04:26:13;7.90;;;5.67;;
4521;SDS011;2273;48.464;11.926;2022-07-23T04:28:39;9.63;;;6.20;;
4521;SDS011;2273;48.464;11.926;2022-07-23T04:31:04;9.50;;;6.20;;
4521;SDS011;2273;48.464;11.926;2022-07-23T04:33:31;9.10;;;6.10;;
4521;SDS011;2273;48.464;11.926;2022-07-23T04:35:58;9.40;;;5.03;;
4521;SDS011;2273;48.464;11.926;2022-07-23T04:38:24;11.17;;;6.20;;
4521;SDS011;2273;48.464;11.926;2022-07-23T04:40:53;9.63;;;6.47;;
4521;SDS011;2273;48.464;11.926;2022-07-23T04:43:19;19.43;;;6.27;;
4521;SDS011;2273;48.464;11.926;2022-07-23T04:45:47;7.13;;;6.37;;
4521;SDS011;2273;48.464;11.926;2022-07-23T04:48:13;9.70;;;6.50;;
4521;SDS011;2273;48.464;11.926;2022-07-23T04:50:39;9.40;;;6.33;;
4521;SDS011;2273;48.464;11.926;2022-07-23T04:53:13;10.40;;;6.00;;
4521;SDS011;2273;48.464;11.926;2022-07-23T04:55:39;9.03;;;6.23;;
4521;SDS011;2273;48.464;11.926;2022-07-23T04:58:05;10.30;;;6.20;;
4521;SDS011;2273;48.464;11.926;2022-07-23T05:00:31;8.70;;;5.43;;
4521;SDS011;2273;48.464;11.926;2022-07-23T05:02:57;8.60;;;5.70;;
4521;SDS011;2273;48.464;11.926;2022-07-23T05:05:22;15.23;;;5.50;;
4521;SDS011;2273;48.464;11.926;2022-07-23T05:07:50;10.47;;;6.00;;
4521;SDS011;2273;48.464;11.926;2022-07-23T05:10:16;12.33;;;6.70;;
4521;SDS011;2273;48.464;11.926;2022-07-23T05:12:41;11.97;;;5.80;;
4521;SDS011;2273;48.464;11.926;2022-07-23T05:15:07;11.30;;;5.77;;
4521;SDS011;2273;48.464;11.926;2022-07-23T05:17:32;9.13;;;6.23;;
4521;SDS011;2273;48.464;11.926;2022-07-23T05:20:00;11.00;;;5.50;;
4521;SDS011;2273;48.464;11.926;2022-07-23T05:22:25;12.93;;;5.50;;
4521;SDS011;2273;48.464;11.926;2022-07-23T05:24:51;7.60;;;6.07;;
4521;SDS011;2273;48.464;11.926;2022-07-23T05:27:17;8.43;;;5.87;;
4521;SDS011;2273;48.464;11.926;2022-07-23T05:29:42;11.63;;;5.77;;
4521;SDS011;2273;48.464;11.926;2022-07-23T05:32:08;9.07;;;6.07;;
4521;SDS011;2273;48.464;11.926;2022-07-23T05:34:37;10.77;;;6.60;;
4521;SDS011;2273;48.464;11.926;2022-07-23T05:37:04;12.90;;;6.50;;
4521;SDS011;2273;48.464;11.926;2022-07-23T05:39:30;10.80;;;6.70;;
4521;SDS011;2273;48.464;11.926;2022-07-23T05:41:55;8.23;;;5.80;;
4521;SDS011;2273;48.464;11.926;2022-07-23T05:44:23;6.63;;;5.20;;
4521;SDS011;2273;48.464;11.926;2022-07-23T05:46:49;11.70;;;5.57;;
4521;SDS011;2273;48.464;11.926;2022-07-23T05:49:19;7.33;;;5.50;;
4521;SDS011;2273;48.464;11.926;2022-07-23T05:52:03;17.00;;;5.83;;
4521;SDS011;2273;48.464;11.926;2022-07-23T05:54:42;9.73;;;5.93;;
4521;SDS011;2273;48.464;11.926;2022-07-23T05:57:09;9.20;;;6.37;;
4521;SDS011;2273;48.464;11.926;2022-07-23T05:59:34;9.63;;;6.00;;
4521;SDS011;2273;48.464;11.926;2022-07-23T06:02:00;11.10;;;6.33;;
4521;SDS011;2273;48.464;11.926;2022-07-23T06:04:26;12.97;;;5.17;;
4521;SDS011;2273;48.464;11.926;2022-07-23T06:07:10;10.13;;;5.67;;
4521;SDS011;2273;48.464;11.926;2022-07-23T06:09:36;10.20;;;6.27;;
4521;SDS011;2273;48.464;11.926;2022-07-23T06:12:01;8.70;;;5.70;;
4521;SDS011;2273;48.464;11.926;2022-07-23T06:14:27;7.30;;;5.77;;
4521;SDS011;2273;48.464;11.926;2022-07-23T06:16:55;9.50;;;5.80;;
4521;SDS011;2273;48.464;11.926;2022-07-23T06:19:21;10.30;;;6.27;;
4521;SDS011;2273;48.464;11.926;2022-07-23T06:21:48;7.57;;;5.47;;
4521;SDS011;2273;48.464;11.926;2022-07-23T06:24:15;8.40;;;6.40;;
4521;SDS011;2273;48.464;11.926;2022-07-23T06:26:41;8.60;;;6.10;;
4521;SDS011;2273;48.464;11.926;2022-07-23T06:29:07;7.67;;;6.00;;
4521;SDS011;2273;48.464;11.926;2022-07-23T06:31:32;9.03;;;5.57;;
4521;SDS011;2273;48.464;11.926;2022-07-23T06:33:58;7.13;;;5.50;;
4521;SDS011;2273;48.464;11.926;2022-07-23T06:36:24;6.90;;;5.40;;
4521;SDS011;2273;48.464;11.926;2022-07-23T06:38:49;9.93;;;6.70;;
4521;SDS011;2273;48.464;11.926;2022-07-23T06:41:15;9.40;;;5.70;;
4521;SDS011;2273;48.464;11.926;2022-07-23T06:43:41;6.83;;;5.57;;
4521;SDS011;2273;48.464;11.926;2022-07-23T06:46:07;7.27;;;5.90;;
4521;SDS011;2273;48.464;11.926;2022-07-23T06:48:33;9.20;;;6.23;;
4521;SDS011;2273;48.464;11.926;2022-07-23T06:51:00;10.70;;;6.70;;
4521;SDS011;2273;48.464;11.926;2022-07-23T06:53:27;14.20;;;5.87;;
4521;SDS011;2273;48.464;11.926;2022-07-23T06:55:52;12.53;;;6.37;;
4521;SDS011;2273;48.464;11.926;2022-07-23T06:58:17;9.63;;;6.53;;
4521;SDS011;2273;48.464;11.926;2022-07-23T07:00:44;7.17;;;5.90;;
4521;SDS011;2273;48.464;11.926;2022-07-23T07:03:10;8.80;;;5.80;;
4521;SDS011;2273;48.464;11.926;2022-07-23T07:05:35;7.40;;;6.13;;
4521;SDS011;2273;48.464;11.926;2022-07-23T07:08:01;6.90;;;5.87;;
4521;SDS011;2273;48.464;11.926;2022-07-23T07:10:26;9.40;;;5.30;;
4521;SDS011;2273;48.464;11.926;2022-07-23T07:12:52;6.53;;;5.80;;
4521;SDS011;2273;48.464;11.926;2022-07-23T07:15:17;7.73;;;6.60;;
4521;SDS011;2273;48.464;11.926;2022-07-23T07:17:43;11.60;;;6.00;;
4521;SDS011;2273;48.464;11.926;2022-07-23T07:20:08;8.33;;;6.50;;
4521;SDS011;2273;48.464;11.926;2022-07-23T07:22:34;8.17;;;6.43;;
4521;SDS011;2273;48.464;11.926;2022-07-23T07:25:00;8.30;;;6.57;;
4521;SDS011;2273;48.464;11.926;2022-07-23T07:27:25;9.83;;;6.93;;
4521;SDS011;2273;48.464;11.926;2022-07-23T07:29:51;7.60;;;6.00;;
4521;SDS011;2273;48.464;11.926;2022-07-23T07:32:16;11.47;;;7.17;;
4521;SDS011;2273;48.464;11.926;2022-07-23T07:34:42;10.20;;;6.20;;
4521;SDS011;2273;48.464;11.926;2022-07-23T07:37:07;14.43;;;6.40;;
4521;SDS011;2273;48.464;11.926;2022-07-23T07:39:33;13.67;;;6.60;;
4521;SDS011;2273;48.464;11.926;2022-07-23T07:41:58;8.63;;;6.90;;
4521;SDS011;2273;48.464;11.926;2022-07-23T07:44:24;8.10;;;6.50;;
4521;SDS011;2273;48.464;11.926;2022-07-23T07:46:49;12.57;;;6.60;;
4521;SDS011;2273;48.464;11.926;2022-07-23T07:49:14;11.90;;;7.50;;
4521;SDS011;2273;48.464;11.926;2022-07-23T07:51:42;11.57;;;7.07;;
4521;SDS011;2273;48.464;11.926;2022-07-23T07:54:07;7.87;;;7.07;;
4521;SDS011;2273;48.464;11.926;2022-07-23T07:56:33;8.73;;;6.43;;
4521;SDS011;2273;48.464;11.926;2022-07-23T07:58:58;8.13;;;6.57;;
4521;SDS011;2273;48.464;11.926;2022-07-23T08:01:24;9.07;;;7.73;;
4521;SDS011;2273;48.464;11.926;2022-07-23T08:03:50;12.07;;;6.87;;
4521;SDS011;2273;48.464;11.926;2022-07-23T08:06:15;8.60;;;6.60;;
4521;SDS011;2273;48.464;11.926;2022-07-23T08:08:41;8.87;;;6.67;;
4521;SDS011;2273;48.464;11.926;2022-07-23T08:11:06;11.37;;;7.33;;
4521;SDS011;2273;48.464;11.926;2022-07-23T08:13:32;10.60;;;7.30;;
4521;SDS011;2273;48.464;11.926;2022-07-23T08:15:57;9.13;;;7.43;;
4521;SDS011;2273;48.464;11.926;2022-07-23T08:18:23;11.50;;;7.33;;
4521;SDS011;2273;48.464;11.926;2022-07-23T08:20:48;7.97;;;7.13;;
4521;SDS011;2273;48.464;11.926;2022-07-23T08:23:14;9.17;;;8.00;;
4521;SDS011;2273;48.464;11.926;2022-07-23T08:25:40;7.93;;;6.90;;
4521;SDS011;2273;48.464;11.926;2022-07-23T08:28:07;11.77;;;7.87;;
4521;SDS011;2273;48.464;11.926;2022-07-23T08:30:35;15.03;;;7.60;;
4521;SDS011;2273;48.464;11.926;2022-07-23T08:33:02;10.93;;;8.20;;
4521;SDS011;2273;48.464;11.926;2022-07-23T08:35:33;12.50;;;7.60;;
4521;SDS011;2273;48.464;11.926;2022-07-23T08:38:01;21.47;;;8.27;;
4521;SDS011;2273;48.464;11.926;2022-07-23T08:40:29;15.10;;;8.20;;
4521;SDS011;2273;48.464;11.926;2022-07-23T08:42:55;9.03;;;7.33;;
4521;SDS011;2273;48.464;11.926;2022-07-23T08:45:22;12.77;;;8.10;;
4521;SDS011;2273;48.464;11.926;2022-07-23T08:47:49;11.93;;;8.20;;
4521;SDS011;2273;48.464;11.926;2022-07-23T08:50:23;18.93;;;8.50;;
4521;SDS011;2273;48.464;11.926;2022-07-23T08:52:50;10.67;;;8.40;;
4521;SDS011;2273;48.464;11.926;2022-07-23T08:55:19;10.10;;;7.97;;
4521;SDS011;2273;48.464;11.926;2022-07-23T08:57:51;10.93;;;8.53;;
4521;SDS011;2273;48.464;11.926;2022-07-23T09:00:17;36.33;;;9.00;;
4521;SDS011;2273;48.464;11.926;2022-07-23T09:02:46;17.50;;;8.57;;
4521;SDS011;2273;48.464;11.926;2022-07-23T09:05:12;12.00;;;8.23;;
4521;SDS011;2273;48.464;11.926;2022-07-23T09:10:44;12.00;;;7.43;;
4521;SDS011;2273;48.464;11.926;2022-07-23T09:15:51;11.70;;;8.60;;
4521;SDS011;2273;48.464;11.926;2022-07-23T09:18:17;13.77;;;9.10;;
4521;SDS011;2273;48.464;11.926;2022-07-23T09:20:43;16.07;;;8.97;;
4521;SDS011;2273;48.464;11.926;2022-07-23T09:23:09;13.10;;;9.03;;
4521;SDS011;2273;48.464;11.926;2022-07-23T09:25:35;10.00;;;8.70;;
4521;SDS011;2273;48.464;11.926;2022-07-23T09:28:00;10.63;;;8.30;;
4521;SDS011;2273;48.464;11.926;2022-07-23T09:30:31;9.20;;;7.60;;
4521;SDS011;2273;48.464;11.926;2022-07-23T09:33:10;12.77;;;8.83;;
4521;SDS011;2273;48.464;11.926;2022-07-23T09:38:19;12.03;;;7.73;;
4521;SDS011;2273;48.464;11.926;2022-07-23T09:41:07;9.43;;;8.43;;
4521;SDS011;2273;48.464;11.926;2022-07-23T09:43:33;10.60;;;8.23;;
4521;SDS011;2273;48.464;11.926;2022-07-23T09:48:44;12.23;;;8.20;;
4521;SDS011;2273;48.464;11.926;2022-07-23T09:51:09;12.20;;;8.47;;
4521;SDS011;2273;48.464;11.926;2022-07-23T09:53:35;13.67;;;9.43;;
4521;SDS011;2273;48.464;11.926;2022-07-23T09:56:00;9.43;;;7.93;;
4521;SDS011;2273;48.464;11.926;2022-07-23T09:58:26;11.30;;;8.90;;
4521;SDS011;2273;48.464;11.926;2022-07-23T10:00:52;16.80;;;8.33;;
4521;SDS011;2273;48.464;11.926;2022-07-23T10:03:18;13.20;;;8.93;;
4521;SDS011;2273;48.464;11.926;2022-07-23T10:06:19;18.60;;;8.60;;
4521;SDS011;2273;48.464;11.926;2022-07-23T10:09:12;11.80;;;7.50;;
4521;SDS011;2273;48.464;11.926;2022-07-23T10:12:03;11.60;;;8.03;;
4521;SDS011;2273;48.464;11.926;2022-07-23T10:14:56;14.00;;;8.27;;
4521;SDS011;2273;48.464;11.926;2022-07-23T10:17:22;11.33;;;7.87;;
4521;SDS011;2273;48.464;11.926;2022-07-23T10:19:48;10.17;;;7.83;;
4521;SDS011;2273;48.464;11.926;2022-07-23T10:22:21;10.23;;;7.03;;
4521;SDS011;2273;48.464;11.926;2022-07-23T10:30:04;7.60;;;6.30;;
4521;SDS011;2273;48.464;11.926;2022-07-23T10:40:34;7.90;;;6.70;;
4521;SDS011;2273;48.464;11.926;2022-07-23T10:43:00;6.17;;;5.57;;
4521;SDS011;2273;48.464;11.926;2022-07-23T10:45:27;14.87;;;5.90;;
4521;SDS011;2273;48.464;11.926;2022-07-23T10:47:53;7.63;;;6.23;;
4521;SDS011;2273;48.464;11.926;2022-07-23T10:50:19;10.07;;;6.30;;
4521;SDS011;2273;48.464;11.926;2022-07-23T10:58:00;10.00;;;6.70;;
4521;SDS011;2273;48.464;11.926;2022-07-23T11:00:29;12.30;;;6.47;;
4521;SDS011;2273;48.464;11.926;2022-07-23T11:03:00;7.83;;;6.07;;
4521;SDS011;2273;48.464;11.926;2022-07-23T11:05:47;8.10;;;6.67;;
4521;SDS011;2273;48.464;11.926;2022-07-23T11:08:13;9.90;;;6.80;;
4521;SDS011;2273;48.464;11.926;2022-07-23T11:10:42;8.37;;;6.93;;
4521;SDS011;2273;48.464;11.926;2022-07-23T11:16:22;9.50;;;6.53;;
4521;SDS011;2273;48.464;11.926;2022-07-23T11:32:17;8.40;;;6.80;;
4521;SDS011;2273;48.464;11.926;2022-07-23T11:34:50;9.60;;;7.23;;
4521;SDS011;2273;48.464;11.926;2022-07-23T11:40:12;10.10;;;6.40;;
4521;SDS011;2273;48.464;11.926;2022-07-23T11:42:40;7.93;;;6.40;;
4521;SDS011;2273;48.464;11.926;2022-07-23T11:45:33;7.87;;;7.07;;
4521;SDS011;2273;48.464;11.926;2022-07-23T11:48:01;11.50;;;7.50;;
4521;SDS011;2273;48.464;11.926;2022-07-23T11:50:27;11.00;;;7.30;;
4521;SDS011;2273;48.464;11.926;2022-07-23T11:52:53;10.07;;;7.80;;
4521;SDS011;2273;48.464;11.926;2022-07-23T11:55:18;9.20;;;7.47;;
4521;SDS011;2273;48.464;11.926;2022-07-23T11:57:44;9.03;;;7.27;;
4521;SDS011;2273;48.464;11.926;2022-07-23T12:00:11;7.70;;;6.73;;
4521;SDS011;2273;48.464;11.926;2022-07-23T12:02:41;8.53;;;7.63;;
4521;SDS011;2273;48.464;11.926;2022-07-23T12:05:09;12.60;;;8.00;;
4521;SDS011;2273;48.464;11.926;2022-07-23T12:07:38;9.57;;;7.47;;
4521;SDS011;2273;48.464;11.926;2022-07-23T12:10:09;7.40;;;6.60;;
4521;SDS011;2273;48.464;11.926;2022-07-23T12:12:38;12.00;;;7.47;;
4521;SDS011;2273;48.464;11.926;2022-07-23T12:15:06;12.37;;;7.07;;
4521;SDS011;2273;48.464;11.926;2022-07-23T12:17:34;7.27;;;6.53;;
4521;SDS011;2273;48.464;11.926;2022-07-23T12:20:01;10.43;;;7.37;;
4521;SDS011;2273;48.464;11.926;2022-07-23T12:22:43;10.70;;;7.40;;
4521;SDS011;2273;48.464;11.926;2022-07-23T12:25:32;8.83;;;7.13;;
4521;SDS011;2273;48.464;11.926;2022-07-23T12:30:42;12.77;;;7.73;;
4521;SDS011;2273;48.464;11.926;2022-07-23T12:33:15;7.70;;;7.00;;
4521;SDS011;2273;48.464;11.926;2022-07-23T12:35:46;9.73;;;7.50;;
4521;SDS011;2273;48.464;11.926;2022-07-23T12:38:15;11.10;;;6.83;;
4521;SDS011;2273;48.464;11.926;2022-07-23T12:40:43;7.03;;;6.33;;
4521;SDS011;2273;48.464;11.926;2022-07-23T12:43:20;6.50;;;5.83;;
4521;SDS011;2273;48.464;11.926;2022-07-23T12:51:18;8.53;;;6.40;;
4521;SDS011;2273;48.464;11.926;2022-07-23T12:53:48;8.90;;;6.73;;
4521;SDS011;2273;48.464;11.926;2022-07-23T12:56:16;8.13;;;6.53;;
4521;SDS011;2273;48.464;11.926;2022-07-23T12:58:50;7.03;;;6.37;;
4521;SDS011;2273;48.464;11.926;2022-07-23T13:03:54;8.07;;;6.50;;
4521;SDS011;2273;48.464;11.926;2022-07-23T13:06:30;7.10;;;5.80;;
4521;SDS011;2273;48.464;11.926;2022-07-23T13:09:06;7.43;;;6.13;;
4521;SDS011;2273;48.464;11.926;2022-07-23T13:11:33;8.07;;;6.27;;
4521;SDS011;2273;48.464;11.926;2022-07-23T13:13:59;7.83;;;6.20;;
4521;SDS011;2273;48.464;11.926;2022-07-23T13:16:28;7.10;;;6.30;;
4521;SDS011;2273;48.464;11.926;2022-07-23T13:18:54;6.47;;;5.80;;
4521;SDS011;2273;48.464;11.926;2022-07-23T13:21:21;6.60;;;5.63;;
4521;SDS011;2273;48.464;11.926;2022-07-23T13:23:47;10.63;;;5.63;;
4521;SDS011;2273;48.464;11.926;2022-07-23T13:26:13;14.67;;;5.90;;
4521;SDS011;2273;48.464;11.926;2022-07-23T13:28:39;7.10;;;6.40;;
4521;SDS011;2273;48.464;11.926;2022-07-23T13:31:04;6.83;;;6.23;;
4521;SDS011;2273;48.464;11.926;2022-07-23T13:33:30;8.30;;;6.57;;
4521;SDS011;2273;48.464;11.926;2022-07-23T13:35:55;7.43;;;6.73;;
4521;SDS011;2273;48.464;11.926;2022-07-23T13:38:21;7.20;;;6.50;;
4521;SDS011;2273;48.464;11.926;2022-07-23T13:40:47;9.40;;;6.43;;
4521;SDS011;2273;48.464;11.926;2022-07-23T13:43:16;7.47;;;6.53;;
4521;SDS011;2273;48.464;11.926;2022-07-23T13:45:42;9.17;;;6.43;;
4521;SDS011;2273;48.464;11.926;2022-07-23T13:48:09;7.60;;;6.77;;
4521;SDS011;2273;48.464;11.926;2022-07-23T13:50:35;7.23;;;6.47;;
4521;SDS011;2273;48.464;11.926;2022-07-23T13:53:02;9.83;;;7.40;;
4521;SDS011;2273;48.464;11.926;2022-07-23T13:55:29;7.10;;;6.40;;
4521;SDS011;2273;48.464;11.926;2022-07-23T13:57:54;9.30;;;6.80;;
4521;SDS011;2273;48.464;11.926;2022-07-23T14:00:20;7.43;;;6.70;;
4521;SDS011;2273;48.464;11.926;2022-07-23T14:02:45;8.70;;;7.10;;
4521;SDS011;2273;48.464;11.926;2022-07-23T14:05:11;8.80;;;7.50;;
4521;SDS011;2273;48.464;11.926;2022-07-23T14:07:36;7.83;;;6.40;;
4521;SDS011;2273;48.464;11.926;2022-07-23T14:10:03;10.30;;;7.10;;
4521;SDS011;2273;48.464;11.926;2022-07-23T14:12:30;11.30;;;6.90;;
4521;SDS011;2273;48.464;11.926;2022-07-23T14:14:55;9.00;;;6.83;;
4521;SDS011;2273;48.464;11.926;2022-07-23T14:17:21;8.97;;;7.17;;
4521;SDS011;2273;48.464;11.926;2022-07-23T14:19:47;17.83;;;7.40;;
4521;SDS011;2273;48.464;11.926;2022-07-23T14:22:12;8.17;;;6.53;;
4521;SDS011;2273;48.464;11.926;2022-07-23T14:24:38;11.63;;;6.80;;
4521;SDS011;2273;48.464;11.926;2022-07-23T14:27:04;7.23;;;6.53;;
4521;SDS011;2273;48.464;11.926;2022-07-23T14:29:30;10.77;;;7.50;;
4521;SDS011;2273;48.464;11.926;2022-07-23T14:31:55;10.50;;;7.30;;
4521;SDS011;2273;48.464;11.926;2022-07-23T14:34:22;14.43;;;7.00;;
4521;SDS011;2273;48.464;11.926;2022-07-23T14:36:47;16.93;;;8.17;;
4521;SDS011;2273;48.464;11.926;2022-07-23T14:39:13;11.67;;;7.13;;
4521;SDS011;2273;48.464;11.926;2022-07-23T14:41:38;8.30;;;7.47;;
4521;SDS011;2273;48.464;11.926;2022-07-23T14:44:05;8.90;;;7.00;;
4521;SDS011;2273;48.464;11.926;2022-07-23T14:46:31;10.50;;;7.00;;
4521;SDS011;2273;48.464;11.926;2022-07-23T14:48:56;11.70;;;7.70;;
4521;SDS011;2273;48.464;11.926;2022-07-23T14:51:22;7.97;;;7.10;;
4521;SDS011;2273;48.464;11.926;2022-07-23T14:53:47;9.07;;;7.47;;
4521;SDS011;2273;48.464;11.926;2022-07-23T14:56:13;9.03;;;7.57;;
4521;SDS011;2273;48.464;11.926;2022-07-23T14:58:39;9.60;;;7.40;;
4521;SDS011;2273;48.464;11.926;2022-07-23T15:01:06;11.13;;;8.23;;
4521;SDS011;2273;48.464;11.926;2022-07-23T15:03:32;11.30;;;7.47;;
4521;SDS011;2273;48.464;11.926;2022-07-23T15:05:58;8.97;;;8.07;;
4521;SDS011;2273;48.464;11.926;2022-07-23T15:08:23;8.80;;;7.90;;
4521;SDS011;2273;48.464;11.926;2022-07-23T15:10:49;6.70;;;5.70;;
4521;SDS011;2273;48.464;11.926;2022-07-23T15:13:14;8.03;;;5.10;;
4521;SDS011;2273;48.464;11.926;2022-07-23T15:15:40;8.07;;;4.57;;
4521;SDS011;2273;48.464;11.926;2022-07-23T15:18:05;5.10;;;3.40;;
4521;SDS011;2273;48.464;11.926;2022-07-23T15:20:31;7.17;;;3.80;;
4521;SDS011;2273;48.464;11.926;2022-07-23T15:22:56;4.80;;;3.60;;
4521;SDS011;2273;48.464;11.926;2022-07-23T15:25:23;5.00;;;3.60;;
4521;SDS011;2273;48.464;11.926;2022-07-23T15:27:49;4.90;;;3.73;;
4521;SDS011;2273;48.464;11.926;2022-07-23T15:30:14;13.40;;;4.30;;
4521;SDS011;2273;48.464;11.926;2022-07-23T15:32:40;5.97;;;4.50;;
4521;SDS011;2273;48.464;11.926;2022-07-23T15:35:05;4.33;;;3.77;;
4521;SDS011;2273;48.464;11.926;2022-07-23T15:37:33;6.40;;;4.10;;
4521;SDS011;2273;48.464;11.926;2022-07-23T15:39:59;6.13;;;4.30;;
4521;SDS011;2273;48.464;11.926;2022-07-23T15:42:25;5.40;;;4.00;;
4521;SDS011;2273;48.464;11.926;2022-07-23T15:44:50;5.93;;;4.07;;
4521;SDS011;2273;48.464;11.926;2022-07-23T15:47:17;5.00;;;4.50;;
4521;SDS011;2273;48.464;11.926;2022-07-23T15:49:43;7.63;;;4.83;;
4521;SDS011;2273;48.464;11.926;2022-07-23T15:52:09;8.83;;;4.80;;
4521;SDS011;2273;48.464;11.926;2022-07-23T15:54:36;5.77;;;4.53;;
4521;SDS011;2273;48.464;11.926;2022-07-23T15:57:02;4.67;;;4.17;;